Time;durP1;ratioP1;P1;durP2;ratioP2;P2;SDS_P1;SDS_P2;PMS_P1;PMS_P2;Temp;Humidity;BMP_temperature;BMP_pressure;BME280_temperature;BME280_humidity;BME280_pressure;Samples;Min_cycle;Max_cycle;Signal;HPM_P1;HPM_P2
2022/07/22 00:01:03;;;;;;;8.45;5.12;;;;;;;19.18;84.27;99434.52;1753714;80;21066;-73
2022/07/22 00:03:29;;;;;;;7.42;5.50;;;;;;;19.10;84.50;99434.86;1769132;80;21063;-73
2022/07/22 00:05:56;;;;;;;5.37;4.87;;;;;;;19.01;84.55;99439.24;1765580;80;21187;-70
2022/07/22 00:08:22;;;;;;;5.90;4.75;;;;;;;19.00;84.37;99440.81;1768803;80;21045;-71
2022/07/22 00:10:49;;;;;;;6.22;5.70;;;;;;;19.05;84.32;99447.69;1783675;79;21057;-73
2022/07/22 00:13:15;;;;;;;5.35;4.85;;;;;;;18.96;84.35;99444.48;1788568;80;21085;-72
2022/07/22 00:15:43;;;;;;;6.12;5.30;;;;;;;18.83;84.59;99446.03;1783309;78;21085;-72
2022/07/22 00:18:11;;;;;;;6.53;5.40;;;;;;;18.74;84.73;99447.39;1779074;78;21138;-72
2022/07/22 00:20:39;;;;;;;5.78;5.17;;;;;;;18.76;84.67;99446.10;1759485;80;21029;-71
2022/07/22 00:23:05;;;;;;;8.50;4.85;;;;;;;18.83;84.48;99447.38;1743658;80;21084;-72
2022/07/22 00:25:32;;;;;;;7.60;6.47;;;;;;;18.76;84.47;99446.10;1778150;80;21049;-70
2022/07/22 00:27:59;;;;;;;7.15;5.75;;;;;;;18.69;84.41;99442.67;1778689;78;21078;-71
2022/07/22 00:30:30;;;;;;;9.40;5.00;;;;;;;18.64;84.48;99447.41;1778008;80;21820;-74
2022/07/22 00:32:57;;;;;;;5.75;5.15;;;;;;;18.64;84.49;99447.41;1777972;80;21059;-73
2022/07/22 00:35:23;;;;;;;5.72;5.20;;;;;;;18.67;84.27;99450.97;1778014;80;21018;-71
2022/07/22 00:37:50;;;;;;;5.65;5.10;;;;;;;18.64;84.35;99460.86;1777950;78;21062;-72
2022/07/22 00:40:17;;;;;;;5.83;5.30;;;;;;;18.55;84.52;99455.49;1778146;78;21503;-73
2022/07/22 00:42:43;;;;;;;5.30;4.53;;;;;;;18.47;84.61;99455.81;1771305;78;22181;-73
2022/07/22 00:45:11;;;;;;;5.42;4.75;;;;;;;18.49;84.65;99457.75;1777579;80;21545;-74
2022/07/22 00:47:37;;;;;;;5.80;4.50;;;;;;;18.55;84.54;99455.49;1772955;80;21032;-72
2022/07/22 00:50:05;;;;;;;5.70;5.10;;;;;;;18.48;84.66;99456.09;1779451;78;21565;-74
2022/07/22 00:52:32;;;;;;;7.53;5.22;;;;;;;18.39;84.82;99458.29;1778378;78;21018;-72
2022/07/22 00:54:59;;;;;;;9.90;4.47;;;;;;;18.34;85.05;99457.33;1776213;80;21242;-73
2022/07/22 00:57:27;;;;;;;5.12;4.65;;;;;;;18.41;84.96;99460.77;1771225;78;21046;-72
2022/07/22 00:59:55;;;;;;;6.53;5.20;;;;;;;18.41;84.97;99456.73;1778106;78;21045;-71
2022/07/22 01:02:21;;;;;;;7.15;4.92;;;;;;;18.35;85.12;99454.41;1771947;80;21006;-74
2022/07/22 01:04:48;;;;;;;9.33;5.10;;;;;;;18.33;85.13;99452.98;1751445;80;21045;-74
2022/07/22 01:07:14;;;;;;;9.88;4.80;;;;;;;18.34;85.12;99451.95;1769344;78;21922;-72
2022/07/22 01:09:45;;;;;;;5.80;5.12;;;;;;;18.40;85.05;99448.34;1777393;80;21526;-71
2022/07/22 01:12:12;;;;;;;5.78;4.92;;;;;;;18.36;85.20;99445.28;1776854;80;21037;-73
2022/07/22 01:14:38;;;;;;;7.47;4.72;;;;;;;18.30;85.36;99448.07;1778272;78;21034;-71
2022/07/22 01:17:05;;;;;;;5.37;4.67;;;;;;;18.22;85.57;99445.98;1777870;80;21096;-71
2022/07/22 01:19:31;;;;;;;6.45;5.10;;;;;;;18.24;85.57;99449.26;1778167;80;21286;-73
2022/07/22 01:21:58;;;;;;;11.12;5.10;;;;;;;18.24;85.59;99449.26;1777555;80;21569;-73
2022/07/22 01:26:52;;;;;;;6.03;5.12;;;;;;;18.14;86.09;99446.29;1820517;76;22781;-72
2022/07/22 01:29:20;;;;;;;5.95;5.25;;;;;;;18.10;86.10;99449.63;1810786;78;21017;-73
2022/07/22 01:31:47;;;;;;;6.35;4.78;;;;;;;18.16;86.02;99452.80;1803715;78;21275;-73
2022/07/22 01:34:14;;;;;;;6.22;5.62;;;;;;;18.12;86.05;99448.38;1812765;78;21473;-72
2022/07/22 01:36:42;;;;;;;5.97;4.75;;;;;;;18.08;86.25;99453.91;1758530;81;21042;-73
2022/07/22 01:39:09;;;;;;;5.70;5.12;;;;;;;18.02;86.44;99454.28;1789734;80;21011;-71
2022/07/22 01:41:36;;;;;;;7.83;5.40;;;;;;;18.03;86.50;99455.91;1779714;80;20974;-72
2022/07/22 01:44:03;;;;;;;8.48;5.58;;;;;;;18.07;86.45;99462.48;1779001;80;21073;-73
2022/07/22 01:46:29;;;;;;;6.28;5.47;;;;;;;18.02;86.63;99460.16;1778446;78;21001;-73
2022/07/22 01:48:56;;;;;;;6.92;5.15;;;;;;;17.96;86.85;99463.74;1775378;80;20925;-72
2022/07/22 01:51:23;;;;;;;5.65;5.15;;;;;;;17.90;87.09;99460.08;1752788;81;21081;-72
2022/07/22 01:53:50;;;;;;;6.53;5.92;;;;;;;17.98;87.05;99458.97;1784133;80;21048;-71
2022/07/22 01:56:17;;;;;;;6.53;5.53;;;;;;;17.97;87.06;99462.19;1742235;81;21233;-71
2022/07/22 01:58:46;;;;;;;6.08;5.28;;;;;;;17.90;87.33;99464.64;1744508;81;21536;-74
2022/07/22 02:01:14;;;;;;;6.47;5.08;;;;;;;17.82;87.59;99470.56;1789028;80;21028;-72
2022/07/22 02:03:41;;;;;;;5.42;4.92;;;;;;;17.84;87.61;99467.69;1787650;80;21021;-71
2022/07/22 02:06:07;;;;;;;6.00;5.40;;;;;;;17.92;87.55;99470.08;1788977;80;21028;-73
2022/07/22 02:08:34;;;;;;;6.33;5.60;;;;;;;17.90;87.60;99466.80;1790104;80;21085;-73
2022/07/22 02:11:03;;;;;;;7.35;5.55;;;;;;;17.85;87.73;99467.48;1787841;79;21068;-71
2022/07/22 02:13:32;;;;;;;8.73;5.70;;;;;;;17.84;87.75;99472.54;1789721;80;21033;-71
2022/07/22 02:15:58;;;;;;;7.45;5.20;;;;;;;17.92;87.55;99476.80;1789551;80;21339;-72
2022/07/22 02:18:26;;;;;;;6.15;5.55;;;;;;;17.98;87.28;99476.44;1788808;80;21056;-72
2022/07/22 02:20:52;;;;;;;6.90;6.12;;;;;;;17.96;87.33;99475.84;1790142;80;21090;-71
2022/07/22 02:23:19;;;;;;;8.78;5.28;;;;;;;17.91;87.49;99482.42;1767918;80;21020;-71
2022/07/22 02:25:45;;;;;;;8.48;5.17;;;;;;;17.92;87.41;99484.05;1790961;78;21019;-71
2022/07/22 02:28:12;;;;;;;7.65;5.65;;;;;;;17.97;87.18;99485.03;1792728;79;21099;-71
2022/07/22 02:30:40;;;;;;;7.90;5.70;;;;;;;17.97;87.24;99486.91;1746579;81;21079;-74
2022/07/22 02:33:07;;;;;;;8.63;6.08;;;;;;;17.94;87.34;99488.67;1768760;80;21745;-73
2022/07/22 02:35:34;;;;;;;5.85;5.25;;;;;;;17.87;87.57;99489.57;1791578;80;21017;-73
2022/07/22 02:38:03;;;;;;;6.78;6.08;;;;;;;17.94;87.44;99490.83;1777643;80;21058;-71
2022/07/22 02:40:31;;;;;;;7.28;5.62;;;;;;;18.00;87.39;99498.53;1773297;80;21048;-72
2022/07/22 02:42:58;;;;;;;6.17;5.58;;;;;;;18.00;87.44;99502.06;1759834;80;21054;-72
2022/07/22 02:45:26;;;;;;;6.47;5.87;;;;;;;17.98;87.50;99498.78;1783091;80;20981;-72
2022/07/22 02:47:55;;;;;;;7.72;6.47;;;;;;;18.04;87.35;99494.34;1717787;81;20988;-70
2022/07/22 02:50:24;;;;;;;8.60;6.67;;;;;;;18.14;87.15;99497.36;1759946;81;21468;-73
2022/07/22 02:52:52;;;;;;;6.87;5.92;;;;;;;18.16;87.09;99487.73;1782081;79;21077;-73
2022/07/22 02:55:19;;;;;;;9.25;6.28;;;;;;;18.15;86.99;99496.83;1792634;80;20992;-72
2022/07/22 02:57:46;;;;;;;6.45;5.78;;;;;;;18.19;87.00;99485.92;1766413;80;21241;-73
2022/07/22 03:00:14;;;;;;;7.10;6.35;;;;;;;18.31;86.71;99492.72;1788527;80;21010;-72
2022/07/22 03:02:41;;;;;;;7.78;5.75;;;;;;;18.35;86.56;99500.13;1775478;78;21058;-73
2022/07/22 03:05:08;;;;;;;6.83;6.12;;;;;;;18.34;86.48;99503.03;1775811;80;21049;-74
2022/07/22 03:07:40;;;;;;;14.73;6.80;;;;;;;18.33;86.45;99500.88;1756794;80;21082;-72
2022/07/22 03:10:08;;;;;;;6.62;5.92;;;;;;;18.41;86.17;99500.57;1790506;80;21283;-73
2022/07/22 03:12:37;;;;;;;11.60;6.45;;;;;;;18.45;86.04;99498.25;1777203;80;21100;-73
2022/07/22 03:15:05;;;;;;;8.83;6.80;;;;;;;18.44;86.09;99496.59;1791734;80;21016;-72
2022/07/22 03:17:36;;;;;;;8.88;6.22;;;;;;;18.41;86.09;99493.03;1777431;80;21101;-72
2022/07/22 03:20:06;;;;;;;7.65;6.05;;;;;;;18.49;85.94;99500.78;1765806;80;21011;-74
2022/07/22 03:22:33;;;;;;;9.55;6.45;;;;;;;18.57;85.68;99503.70;1776340;80;21042;-73
2022/07/22 03:25:00;;;;;;;7.17;6.10;;;;;;;18.58;85.63;99498.59;1783547;80;21584;-74
2022/07/22 03:27:27;;;;;;;8.98;6.40;;;;;;;18.57;85.68;99506.38;1773822;79;21521;-75
2022/07/22 03:29:54;;;;;;;8.10;6.03;;;;;;;18.59;85.59;99509.14;1778237;78;21049;-71
2022/07/22 03:32:20;;;;;;;7.80;5.78;;;;;;;18.70;85.25;99504.03;1778565;78;21002;-72
2022/07/22 03:34:48;;;;;;;8.60;6.25;;;;;;;18.80;84.78;99507.05;1774522;80;21205;-74
2022/07/22 03:37:14;;;;;;;7.83;6.58;;;;;;;18.79;84.77;99498.63;1772440;81;21034;-73
2022/07/22 03:39:43;;;;;;;8.40;6.53;;;;;;;18.76;84.78;99507.99;1775139;80;21016;-74
2022/07/22 03:42:11;;;;;;;6.87;5.22;;;;;;;18.76;84.72;99507.18;1781383;80;21075;-73
2022/07/22 03:44:39;;;;;;;6.83;5.92;;;;;;;18.82;84.64;99503.61;1768289;80;21077;-71
2022/07/22 03:47:06;;;;;;;8.35;7.22;;;;;;;18.93;84.25;99504.68;1761387;78;21201;-72
2022/07/22 03:49:32;;;;;;;6.67;5.95;;;;;;;18.91;84.18;99502.24;1779027;78;21049;-70
2022/07/22 03:52:00;;;;;;;7.62;6.80;;;;;;;18.88;84.16;99501.88;1768495;80;21073;-74
2022/07/22 03:54:26;;;;;;;6.80;6.20;;;;;;;18.84;84.25;99510.92;1741524;80;21015;-71
2022/07/22 03:56:53;;;;;;;6.45;5.85;;;;;;;18.87;84.01;99507.76;1760156;80;21041;-75
2022/07/22 03:59:19;;;;;;;7.83;5.83;;;;;;;18.93;83.83;99507.38;1778405;80;21194;-72
2022/07/22 04:01:47;;;;;;;9.63;6.10;;;;;;;18.91;83.95;99508.97;1787829;80;21052;-72
2022/07/22 04:04:14;;;;;;;7.50;5.92;;;;;;;18.90;84.01;99514.58;1772115;81;21546;-72
2022/07/22 04:06:45;;;;;;;5.83;5.33;;;;;;;18.92;84.05;99521.36;1789433;80;21060;-71
2022/07/22 04:09:15;;;;;;;7.83;6.30;;;;;;;19.03;83.86;99525.16;1789010;80;20982;-72
2022/07/22 04:11:42;;;;;;;8.73;6.80;;;;;;;19.16;83.55;99522.28;1778165;80;21630;-74
2022/07/22 04:14:09;;;;;;;6.85;6.25;;;;;;;19.21;83.27;99519.70;1756646;80;21026;-73
2022/07/22 04:16:36;;;;;;;7.70;5.85;;;;;;;19.22;83.10;99515.16;1789236;80;21509;-72
2022/07/22 04:19:04;;;;;;;8.50;5.78;;;;;;;19.21;82.94;99518.35;1748054;81;21097;-72
2022/07/22 04:21:42;;;;;;;9.60;5.87;;;;;;;19.25;82.68;99518.72;1726262;81;21068;-72
2022/07/22 04:24:11;;;;;;;7.40;5.95;;;;;;;19.35;82.37;99519.50;1774361;80;21235;-73
2022/07/22 04:26:38;;;;;;;7.90;5.75;;;;;;;19.35;82.21;99519.50;1784022;80;21065;-73
2022/07/22 04:29:05;;;;;;;9.33;7.20;;;;;;;19.33;82.14;99525.11;1772904;79;21041;-73
2022/07/22 04:31:32;;;;;;;6.30;5.67;;;;;;;19.30;82.09;99514.82;1758623;81;21073;-74
2022/07/22 04:34:01;;;;;;;7.03;6.05;;;;;;;19.33;82.00;99523.77;1735262;81;21001;-73
2022/07/22 04:36:28;;;;;;;6.75;6.15;;;;;;;19.38;81.81;99523.91;1764364;81;21147;-75
2022/07/22 04:38:54;;;;;;;7.12;6.37;;;;;;;19.37;81.95;99524.12;1756386;81;21001;-72
2022/07/22 04:41:21;;;;;;;7.37;5.78;;;;;;;19.36;82.07;99528.70;1772078;80;20964;-73
2022/07/22 04:43:49;;;;;;;6.95;5.83;;;;;;;19.39;82.19;99530.95;1758189;81;21064;-72
2022/07/22 04:46:15;;;;;;;6.80;5.70;;;;;;;19.56;81.94;99532.95;1765340;81;21049;-74
2022/07/22 04:48:42;;;;;;;7.40;5.80;;;;;;;19.73;81.49;99532.59;1772689;81;21178;-73
2022/07/22 04:51:09;;;;;;;7.22;6.33;;;;;;;19.84;81.18;99529.63;1772167;80;21032;-74
2022/07/22 04:53:36;;;;;;;6.70;6.03;;;;;;;19.91;80.70;99532.19;1771502;81;21539;-73
2022/07/22 04:56:05;;;;;;;6.17;5.58;;;;;;;19.93;80.36;99534.13;1771869;81;21068;-74
2022/07/22 04:58:33;;;;;;;10.03;6.03;;;;;;;19.95;80.03;99532.02;1771792;81;21021;-73
2022/07/22 05:01:00;;;;;;;6.35;5.62;;;;;;;20.14;79.74;99533.52;1771552;79;21412;-72
2022/07/22 05:03:26;;;;;;;7.37;6.08;;;;;;;20.36;79.08;99527.54;1771946;81;20996;-73
2022/07/22 05:05:53;;;;;;;6.40;5.80;;;;;;;20.53;78.69;99528.44;1771713;81;21005;-71
2022/07/22 05:08:23;;;;;;;6.45;5.85;;;;;;;20.66;78.05;99531.94;1770120;80;21072;-73
2022/07/22 05:10:50;;;;;;;10.05;5.85;;;;;;;20.74;77.47;99532.91;1771771;80;21048;-73
2022/07/22 05:13:17;;;;;;;6.87;5.35;;;;;;;20.82;76.83;99533.87;1771693;80;21081;-73
2022/07/22 05:15:44;;;;;;;5.33;4.87;;;;;;;20.99;76.31;99540.14;1758091;81;21608;-75
2022/07/22 05:18:10;;;;;;;6.75;5.22;;;;;;;21.16;75.70;99538.02;1763362;81;21015;-72
2022/07/22 05:20:38;;;;;;;5.53;5.03;;;;;;;21.24;75.23;99553.02;1776196;80;21039;-75
2022/07/22 05:23:06;;;;;;;7.25;4.90;;;;;;;21.28;74.77;99550.92;1745659;81;21040;-72
2022/07/22 05:25:33;;;;;;;6.08;5.33;;;;;;;21.26;74.51;99548.19;1769361;81;21443;-73
2022/07/22 05:28:00;;;;;;;6.45;5.78;;;;;;;21.22;74.37;99550.55;1763402;80;21120;-74
2022/07/22 05:30:36;;;;;;;9.20;5.45;;;;;;;21.22;74.23;99546.50;1770125;81;21042;-72
2022/07/22 05:33:03;;;;;;;6.35;5.67;;;;;;;21.27;74.17;99547.95;1779447;80;20985;-72
2022/07/22 05:35:41;;;;;;;6.15;5.55;;;;;;;21.34;73.93;99552.68;1732726;81;20994;-75
2022/07/22 05:38:08;;;;;;;7.30;5.60;;;;;;;21.28;73.91;99554.98;1790251;80;21162;-72
2022/07/22 05:40:34;;;;;;;6.20;5.35;;;;;;;21.24;74.20;99551.66;1770105;81;20966;-73
2022/07/22 05:43:02;;;;;;;7.67;5.08;;;;;;;21.25;74.08;99552.78;1783301;80;21036;-71
2022/07/22 05:45:29;;;;;;;6.08;5.50;;;;;;;21.26;73.95;99555.75;1770595;80;21138;-73
2022/07/22 05:47:56;;;;;;;6.92;4.80;;;;;;;21.28;73.67;99558.22;1790390;80;21016;-74
2022/07/22 05:50:23;;;;;;;5.17;4.60;;;;;;;21.27;73.48;99558.76;1790132;80;21180;-73
2022/07/22 05:52:49;;;;;;;7.47;4.75;;;;;;;21.37;73.17;99558.93;1800686;79;21055;-74
2022/07/22 05:55:16;;;;;;;6.00;5.40;;;;;;;21.51;72.86;99557.30;1778235;80;21041;-74
2022/07/22 05:57:43;;;;;;;5.70;5.03;;;;;;;21.57;72.65;99559.83;1778287;80;20983;-75
2022/07/22 06:00:11;;;;;;;6.83;4.65;;;;;;;21.60;72.46;99551.78;1777104;80;21054;-73
2022/07/22 06:02:42;;;;;;;7.87;4.83;;;;;;;21.64;72.11;99550.23;1787192;80;22028;-73
2022/07/22 06:05:13;;;;;;;5.05;3.75;;;;;;;21.67;71.85;99544.34;1769994;80;21003;-74
2022/07/22 06:07:40;;;;;;;4.92;4.12;;;;;;;21.68;71.13;99545.16;1789544;80;21090;-73
2022/07/22 06:10:08;;;;;;;5.33;4.50;;;;;;;21.70;70.88;99543.83;1789179;80;21567;-73
2022/07/22 06:12:35;;;;;;;5.85;4.60;;;;;;;21.71;70.53;99546.84;1790026;80;20981;-72
2022/07/22 06:15:04;;;;;;;5.15;3.70;;;;;;;21.77;70.34;99553.14;1790028;80;21218;-74
2022/07/22 06:17:31;;;;;;;4.30;3.62;;;;;;;21.82;69.81;99549.14;1789396;80;20981;-74
2022/07/22 06:19:58;;;;;;;5.00;3.70;;;;;;;21.87;69.31;99549.23;1789981;80;21085;-71
2022/07/22 06:22:25;;;;;;;7.72;3.98;;;;;;;21.92;68.76;99547.97;1790154;80;21028;-73
2022/07/22 06:24:53;;;;;;;5.67;3.58;;;;;;;21.95;68.08;99553.41;1790005;80;21064;-73
2022/07/22 06:27:19;;;;;;;5.60;3.75;;;;;;;21.98;67.82;99549.69;1790226;80;21125;-74
2022/07/22 06:29:46;;;;;;;3.65;3.35;;;;;;;22.03;67.89;99549.47;1790116;79;20953;-74
2022/07/22 06:32:13;;;;;;;3.95;2.80;;;;;;;22.10;67.53;99544.71;1789681;80;21025;-74
2022/07/22 06:34:40;;;;;;;5.70;3.08;;;;;;;22.15;66.35;99542.87;1775919;80;21034;-75
2022/07/22 06:37:08;;;;;;;3.33;2.70;;;;;;;22.18;65.66;99539.67;1757742;81;21018;-74
2022/07/22 06:39:35;;;;;;;3.55;3.22;;;;;;;22.21;65.30;99541.59;1770941;80;21899;-73
2022/07/22 06:42:07;;;;;;;3.50;3.20;;;;;;;22.25;65.00;99540.05;1763428;81;21003;-74
2022/07/22 06:44:47;;;;;;;4.22;3.10;;;;;;;22.28;64.97;99540.92;1755640;81;21508;-73
2022/07/22 06:47:35;;;;;;;4.65;3.05;;;;;;;22.32;64.97;99550.17;1743750;80;21060;-73
2022/07/22 06:50:04;;;;;;;4.30;3.08;;;;;;;22.38;64.79;99555.39;1771616;80;21099;-75
2022/07/22 06:52:32;;;;;;;8.13;3.52;;;;;;;22.46;64.20;99553.33;1789146;80;21036;-73
2022/07/22 06:55:00;;;;;;;3.80;3.10;;;;;;;22.50;63.77;99554.46;1770218;80;21073;-74
2022/07/22 06:57:29;;;;;;;6.10;3.75;;;;;;;22.54;63.42;99557.78;1789761;80;20998;-73
2022/07/22 06:59:55;;;;;;;5.00;3.25;;;;;;;22.56;63.16;99558.35;1770033;81;21071;-75
2022/07/22 07:02:23;;;;;;;5.80;3.27;;;;;;;22.56;62.76;99561.05;1775062;80;21062;-73
2022/07/22 07:04:49;;;;;;;4.72;3.20;;;;;;;22.57;62.73;99557.80;1754730;81;21141;-75
2022/07/22 07:07:16;;;;;;;3.47;2.83;;;;;;;22.58;62.33;99566.22;1768815;81;21022;-74
2022/07/22 07:09:44;;;;;;;3.62;3.22;;;;;;;22.60;62.20;99564.59;1767200;80;21074;-75
2022/07/22 07:12:12;;;;;;;3.25;2.95;;;;;;;22.60;61.89;99563.23;1790348;80;21525;-74
2022/07/22 07:14:41;;;;;;;2.95;2.67;;;;;;;22.61;61.71;99558.94;1766620;81;20979;-72
2022/07/22 07:17:09;;;;;;;3.15;2.87;;;;;;;22.63;61.34;99555.98;1789968;80;21029;-74
2022/07/22 07:19:37;;;;;;;3.50;2.67;;;;;;;22.65;61.57;99560.06;1770113;81;21014;-74
2022/07/22 07:22:04;;;;;;;5.03;2.95;;;;;;;22.69;61.13;99561.19;1790063;80;21052;-73
2022/07/22 07:24:30;;;;;;;3.05;2.75;;;;;;;22.73;60.75;99564.22;1769161;81;21030;-73
2022/07/22 07:26:59;;;;;;;4.87;3.10;;;;;;;22.75;60.86;99558.86;1790027;80;21044;-74
2022/07/22 07:29:26;;;;;;;3.02;2.72;;;;;;;22.78;60.21;99566.45;1771378;80;21911;-72
2022/07/22 07:31:53;;;;;;;3.12;2.85;;;;;;;22.81;60.31;99568.38;1789250;80;20993;-73
2022/07/22 07:34:21;;;;;;;3.75;2.98;;;;;;;22.82;60.35;99571.38;1776281;78;21470;-72
2022/07/22 07:36:48;;;;;;;3.55;2.42;;;;;;;22.82;60.53;99566.77;1764466;78;21028;-74
2022/07/22 07:39:15;;;;;;;5.30;2.50;;;;;;;22.86;59.96;99571.96;1764343;80;21046;-73
2022/07/22 07:41:41;;;;;;;7.75;2.90;;;;;;;22.88;59.54;99573.87;1787983;80;21344;-73
2022/07/22 07:44:09;;;;;;;2.80;2.60;;;;;;;22.91;59.20;99571.22;1753050;80;21008;-74
2022/07/22 07:46:36;;;;;;;3.92;2.30;;;;;;;22.94;59.09;99573.41;1773511;78;21034;-73
2022/07/22 07:49:02;;;;;;;2.52;2.33;;;;;;;22.97;58.90;99568.30;1756544;80;21081;-74
2022/07/22 07:51:31;;;;;;;5.58;2.40;;;;;;;23.03;58.72;99570.56;1770188;80;21041;-72
2022/07/22 07:53:57;;;;;;;4.00;2.65;;;;;;;23.10;58.58;99564.93;1778211;80;21173;-74
2022/07/22 07:56:25;;;;;;;2.62;2.17;;;;;;;23.18;58.24;99574.50;1778199;80;21058;-73
2022/07/22 07:58:52;;;;;;;2.98;2.30;;;;;;;23.27;58.09;99568.91;1755678;80;21108;-74
2022/07/22 08:01:19;;;;;;;5.85;2.50;;;;;;;23.35;57.42;99575.21;1762325;79;21073;-74
2022/07/22 08:03:46;;;;;;;3.27;2.60;;;;;;;23.44;57.16;99574.22;1772337;78;21116;-74
2022/07/22 08:06:13;;;;;;;5.45;2.70;;;;;;;23.47;57.07;99575.88;1760296;81;21856;-74
2022/07/22 08:08:41;;;;;;;4.25;2.87;;;;;;;23.50;56.93;99575.35;1776810;78;21085;-74
2022/07/22 08:11:13;;;;;;;8.53;3.15;;;;;;;23.53;57.04;99578.11;1787355;80;21001;-73
2022/07/22 08:13:58;;;;;;;3.77;2.52;;;;;;;23.55;56.82;99585.44;1757818;80;21017;-75
2022/07/22 08:16:46;;;;;;;4.78;2.47;;;;;;;23.59;56.49;99580.33;1773723;80;21101;-75
2022/07/22 08:19:12;;;;;;;5.37;2.40;;;;;;;23.61;56.72;99570.85;1789057;80;21086;-72
2022/07/22 08:21:41;;;;;;;6.03;2.95;;;;;;;23.65;56.65;99581.45;1778038;80;21037;-72
2022/07/22 08:24:28;;;;;;;2.75;2.52;;;;;;;23.69;56.96;99571.72;1758168;78;21038;-74
2022/07/22 08:26:57;;;;;;;6.58;3.33;;;;;;;23.75;56.53;99580.72;1777874;80;21082;-71
2022/07/22 08:29:25;;;;;;;2.72;2.47;;;;;;;23.79;56.54;99576.98;1755368;78;21556;-73
2022/07/22 08:31:52;;;;;;;6.37;2.92;;;;;;;23.82;56.87;99580.00;1747428;80;21277;-74
2022/07/22 08:34:20;;;;;;;5.12;2.58;;;;;;;23.90;56.54;99571.38;1776437;80;21047;-74
2022/07/22 08:36:47;;;;;;;4.95;3.10;;;;;;;24.01;56.13;99572.28;1778398;80;21092;-73
2022/07/22 08:39:14;;;;;;;3.87;2.70;;;;;;;24.10;55.39;99569.88;1761062;80;21031;-74
2022/07/22 08:41:41;;;;;;;3.95;2.30;;;;;;;24.17;55.71;99577.81;1741534;80;21111;-73
2022/07/22 08:44:09;;;;;;;2.83;2.40;;;;;;;24.28;55.14;99582.19;1763229;80;21644;-72
2022/07/22 08:46:36;;;;;;;2.90;2.55;;;;;;;24.39;54.74;99583.89;1761975;79;21085;-74
2022/07/22 08:49:20;;;;;;;6.25;2.87;;;;;;;24.51;54.14;99585.06;1782230;80;21085;-72
2022/07/22 08:51:57;;;;;;;2.70;2.50;;;;;;;24.64;54.02;99593.28;1782299;80;21002;-73
2022/07/22 08:54:26;;;;;;;4.08;2.30;;;;;;;24.77;52.88;99581.13;1785300;79;21033;-72
2022/07/22 08:56:54;;;;;;;3.80;2.00;;;;;;;24.88;52.28;99582.25;1766580;80;21841;-73
2022/07/22 08:59:23;;;;;;;4.15;2.00;;;;;;;25.00;51.75;99580.66;1772055;81;21038;-74
2022/07/22 09:02:11;;;;;;;6.00;1.90;;;;;;;25.11;51.60;99585.04;1789013;80;21057;-73
2022/07/22 09:04:59;;;;;;;3.10;2.12;;;;;;;25.28;50.89;99590.80;1787438;80;21119;-75
2022/07/22 09:07:34;;;;;;;4.12;2.27;;;;;;;25.45;50.54;99595.45;1781730;80;21001;-73
2022/07/22 09:10:13;;;;;;;2.55;2.20;;;;;;;25.63;49.92;99587.84;1751196;81;21099;-73
2022/07/22 09:13:02;;;;;;;5.15;2.25;;;;;;;25.79;49.77;99590.05;1788889;80;22058;-74
2022/07/22 09:15:39;;;;;;;2.45;1.80;;;;;;;25.99;49.34;99586.52;1787151;79;20993;-74
2022/07/22 09:18:25;;;;;;;5.22;2.17;;;;;;;26.15;49.39;99585.39;1772690;80;21037;-72
2022/07/22 09:21:00;;;;;;;3.72;1.80;;;;;;;26.40;47.97;99591.88;1748602;79;21026;-74
2022/07/22 09:23:45;;;;;;;1.98;1.87;;;;;;;26.62;47.55;99587.50;1777009;80;21600;-73
2022/07/22 09:26:35;;;;;;;3.22;2.10;;;;;;;26.92;47.38;99585.17;1777862;78;21026;-76
2022/07/22 09:29:12;;;;;;;3.22;1.70;;;;;;;27.26;46.77;99582.55;1752725;80;21038;-74
2022/07/22 09:31:44;;;;;;;15.70;4.13;;;;;;;27.81;45.27;99590.59;1793999;78;21072;-73
2022/07/22 09:34:27;;;;;;;4.03;2.10;;;;;;;28.27;44.98;99585.84;1766197;80;20996;-73
2022/07/22 09:36:59;;;;;;;2.10;1.90;;;;;;;28.86;43.90;99580.52;1751262;80;21234;-74
2022/07/22 09:39:30;;;;;;;2.15;1.95;;;;;;;29.39;42.87;99586.36;1795171;80;21548;-74
2022/07/22 09:42:02;;;;;;;4.45;2.20;;;;;;;29.87;42.30;99588.90;1793342;78;21057;-73
2022/07/22 09:44:30;;;;;;;3.02;2.10;;;;;;;30.39;41.67;99592.92;1794564;80;21079;-74
2022/07/22 09:47:00;;;;;;;2.50;1.82;;;;;;;30.89;40.79;99589.45;1794823;79;21619;-72
2022/07/22 09:49:39;;;;;;;2.83;2.05;;;;;;;31.31;39.60;99590.99;1792116;80;21518;-73
2022/07/22 09:52:24;;;;;;;2.27;2.00;;;;;;;31.67;39.40;99572.88;1795073;80;21017;-73
2022/07/22 09:54:53;;;;;;;4.15;2.20;;;;;;;32.02;39.05;99590.39;1763797;80;20989;-72
2022/07/22 09:57:19;;;;;;;2.33;2.10;;;;;;;32.32;38.92;99589.33;1771071;80;20973;-72
2022/07/22 09:59:47;;;;;;;2.25;2.00;;;;;;;32.76;38.07;99582.61;1775095;80;21062;-72
2022/07/22 10:02:15;;;;;;;2.52;1.95;;;;;;;33.19;37.14;99578.58;1792871;80;21470;-75
2022/07/22 10:04:43;;;;;;;2.33;1.82;;;;;;;33.51;37.02;99586.08;1778508;78;20994;-74
2022/07/22 10:07:11;;;;;;;3.00;2.00;;;;;;;33.83;36.61;99583.97;1777001;80;21633;-73
2022/07/22 10:09:39;;;;;;;2.33;2.00;;;;;;;34.11;35.53;99578.84;1762955;80;21095;-73
2022/07/22 10:12:07;;;;;;;2.80;2.33;;;;;;;34.23;35.06;99579.02;1795076;80;21071;-72
2022/07/22 10:14:34;;;;;;;2.90;2.05;;;;;;;34.21;35.08;99590.11;1793857;80;21151;-73
2022/07/22 10:17:02;;;;;;;6.50;2.00;;;;;;;34.30;35.16;99586.75;1795171;80;21079;-73
2022/07/22 10:19:30;;;;;;;2.12;1.92;;;;;;;34.50;34.88;99592.66;1795096;80;21075;-74
2022/07/22 10:21:57;;;;;;;4.37;2.20;;;;;;;34.79;34.56;99594.09;1766733;80;21076;-74
2022/07/22 10:24:24;;;;;;;2.65;2.05;;;;;;;35.06;34.54;99589.20;1772437;80;21028;-74
2022/07/22 10:27:01;;;;;;;2.72;2.50;;;;;;;35.46;33.90;99590.69;1795075;80;21158;-73
2022/07/22 10:29:44;;;;;;;2.72;1.87;;;;;;;35.81;33.75;99587.03;1792351;80;21040;-73
2022/07/22 10:32:21;;;;;;;1.85;1.75;;;;;;;36.15;33.45;99588.59;1782359;80;21004;-73
2022/07/22 10:35:20;;;;;;;2.62;1.82;;;;;;;36.42;33.03;99594.64;1754902;80;21060;-72
2022/07/22 10:37:49;;;;;;;5.37;2.10;;;;;;;36.56;32.74;99595.09;1794473;80;20976;-74
2022/07/22 10:40:20;;;;;;;2.42;1.82;;;;;;;36.79;32.79;99589.11;1775041;80;22327;-73
2022/07/22 10:43:05;;;;;;;2.02;1.92;;;;;;;36.80;32.37;99597.08;1794885;80;21024;-74
2022/07/22 10:45:45;;;;;;;4.20;1.95;;;;;;;36.82;32.48;99592.58;1775027;80;21138;-74
2022/07/22 10:48:18;;;;;;;3.40;2.70;;;;;;;37.01;32.21;99597.48;1794685;80;21059;-73
2022/07/22 10:50:55;;;;;;;2.95;2.33;;;;;;;37.22;32.21;99579.93;1765055;80;21499;-73
2022/07/22 10:53:42;;;;;;;2.20;2.05;;;;;;;37.47;31.82;99592.52;1788410;80;21932;-75
2022/07/22 10:56:17;;;;;;;3.22;2.00;;;;;;;37.53;31.69;99589.75;1794977;80;21036;-73
2022/07/22 10:58:51;;;;;;;3.50;1.65;;;;;;;37.46;31.70;99597.85;1795348;80;21016;-74
2022/07/22 11:01:20;;;;;;;1.98;1.70;;;;;;;37.55;31.45;99590.75;1795147;80;21544;-72
2022/07/22 11:03:48;;;;;;;3.95;2.00;;;;;;;37.74;31.03;99590.12;1798739;78;21015;-73
2022/07/22 11:06:23;;;;;;;2.67;2.02;;;;;;;37.74;30.98;99591.50;1764622;80;21076;-73
2022/07/22 11:08:53;;;;;;;2.85;1.98;;;;;;;37.75;31.08;99584.22;1785615;80;21061;-73
2022/07/22 11:11:40;;;;;;;2.00;1.80;;;;;;;37.75;31.36;99590.36;1778651;80;21028;-74
2022/07/22 11:14:32;;;;;;;2.00;1.90;;;;;;;38.04;30.98;99596.66;1745388;80;21061;-72
2022/07/22 11:17:11;;;;;;;4.00;1.90;;;;;;;38.27;30.35;99595.48;1773406;80;21024;-74
2022/07/22 11:19:39;;;;;;;3.27;2.00;;;;;;;38.20;30.62;99588.36;1775044;80;21199;-73
2022/07/22 11:22:09;;;;;;;2.10;1.90;;;;;;;38.34;30.19;99599.80;1795262;80;21595;-74
2022/07/22 11:24:36;;;;;;;12.33;3.02;;;;;;;38.30;30.17;99599.71;1784569;78;21619;-73
2022/07/22 11:27:05;;;;;;;6.80;3.27;;;;;;;38.30;30.19;99587.81;1788306;80;21508;-72
2022/07/22 11:29:39;;;;;;;2.25;2.00;;;;;;;38.35;29.93;99596.67;1762337;81;21045;-74
2022/07/22 11:32:09;;;;;;;3.10;2.10;;;;;;;38.48;30.19;99585.46;1773333;80;21148;-74
2022/07/22 11:34:42;;;;;;;5.70;2.60;;;;;;;38.90;29.75;99593.20;1795138;80;21076;-74
2022/07/22 11:37:07;;;;;;;3.08;2.10;;;;;;;39.10;29.70;99587.14;1794798;80;21508;-74
2022/07/22 11:39:33;;;;;;;2.62;2.10;;;;;;;39.44;29.51;99593.00;1793831;78;21006;-73
2022/07/22 11:42:00;;;;;;;7.30;2.20;;;;;;;39.68;28.90;99587.13;1795000;80;21017;-74
2022/07/22 11:44:30;;;;;;;4.10;2.10;;;;;;;39.73;28.73;99592.16;1774934;80;21625;-75
2022/07/22 11:46:58;;;;;;;4.55;2.20;;;;;;;39.78;28.38;99582.94;1794966;80;21480;-75